Time;durP1;ratioP1;P1;durP2;ratioP2;P2;SDS_P1;SDS_P2;PMS_P1;PMS_P2;Temp;Humidity;BMP_temperature;BMP_pressure;BME280_temperature;BME280_humidity;BME280_pressure;Samples;Min_cycle;Max_cycle;Signal;HPM_P1;HPM_P2
2023/07/31 00:02:10;;;;;;;7.45;1.55;;;16.80;99.90;;;16.02;100.00;97620.88;5005968;28;20107;-77
2023/07/31 00:04:37;;;;;;;8.60;1.65;;;16.80;99.90;;;16.09;100.00;97625.59;5005378;28;20046;-77
2023/07/31 00:07:06;;;;;;;7.95;1.70;;;16.80;99.90;;;16.09;100.00;97616.91;5003981;28;20567;-76
2023/07/31 00:09:36;;;;;;;9.23;1.42;;;16.80;99.90;;;16.07;100.00;97619.63;4999802;28;20069;-76
2023/07/31 00:12:04;;;;;;;8.43;1.88;;;16.80;99.90;;;16.03;100.00;97607.69;5000362;28;20469;-76
2023/07/31 00:14:31;;;;;;;5.45;1.58;;;16.80;99.90;;;16.02;100.00;97608.59;5008485;28;20072;-76
2023/07/31 00:16:58;;;;;;;7.53;1.98;;;16.70;99.90;;;16.09;100.00;97612.50;5007659;28;20054;-77
2023/07/31 00:19:25;;;;;;;8.77;2.15;;;16.70;99.90;;;16.02;100.00;97606.00;5007673;28;20056;-77
2023/07/31 00:21:52;;;;;;;9.40;1.85;;;16.80;99.90;;;16.02;100.00;97602.53;5004854;28;20489;-76
2023/07/31 00:24:19;;;;;;;8.35;2.00;;;16.80;99.90;;;15.97;100.00;97608.06;5002256;28;20042;-77
2023/07/31 00:26:46;;;;;;;8.15;1.83;;;16.70;99.90;;;15.92;100.00;97604.06;5006619;28;20049;-77
2023/07/31 00:29:13;;;;;;;8.32;2.17;;;16.70;99.90;;;15.91;100.00;97597.16;5004972;28;20049;-77
2023/07/31 00:31:40;;;;;;;5.22;1.45;;;16.70;99.90;;;15.92;100.00;97604.06;5005427;28;20062;-76
2023/07/31 00:34:07;;;;;;;4.88;1.38;;;16.70;99.90;;;15.83;100.00;97605.50;5005143;28;20543;-76
2023/07/31 00:36:34;;;;;;;4.20;1.45;;;16.70;99.90;;;15.84;100.00;97608.00;5003933;28;20485;-76
2023/07/31 00:39:01;;;;;;;6.10;2.00;;;16.60;99.90;;;15.84;100.00;97589.69;5007077;28;20046;-75
2023/07/31 00:41:28;;;;;;;6.55;1.45;;;16.60;99.90;;;15.73;100.00;97581.66;5002088;28;20046;-76
2023/07/31 00:43:55;;;;;;;6.70;1.60;;;16.60;99.90;;;15.64;100.00;97600.53;5005463;28;20065;-76
2023/07/31 00:46:22;;;;;;;9.07;1.65;;;16.60;99.90;;;15.53;100.00;97614.31;5006925;28;20038;-76
2023/07/31 00:48:49;;;;;;;11.88;1.67;;;16.50;99.90;;;15.59;100.00;97623.53;5004425;28;20085;-76
2023/07/31 00:51:17;;;;;;;6.32;1.50;;;16.40;99.90;;;15.41;100.00;97628.97;5005790;28;20568;-77
2023/07/31 00:53:44;;;;;;;8.18;1.55;;;16.30;99.90;;;15.45;100.00;97614.75;5003105;28;20103;-76
2023/07/31 00:56:12;;;;;;;5.53;1.50;;;16.20;99.90;;;15.28;100.00;97620.22;5005251;28;20057;-76
2023/07/31 00:58:40;;;;;;;7.75;1.85;;;16.20;99.90;;;15.25;100.00;97626.44;5003328;28;20115;-76
2023/07/31 01:01:07;;;;;;;10.60;1.92;;;16.20;99.90;;;15.22;100.00;97621.41;5007666;28;20092;-76
2023/07/31 01:03:35;;;;;;;8.30;1.67;;;16.20;99.90;;;15.20;100.00;97619.81;5003752;28;20045;-77
2023/07/31 01:06:17;;;;;;;7.50;1.40;;;16.10;99.90;;;15.18;100.00;97612.06;5002518;28;20116;-76
2023/07/31 01:09:13;;;;;;;6.53;1.80;;;16.10;99.90;;;15.13;100.00;97614.13;5002741;28;20062;-77
2023/07/31 01:11:56;;;;;;;5.63;1.63;;;16.00;99.90;;;15.08;100.00;97607.50;5006160;28;20313;-75
2023/07/31 01:14:23;;;;;;;6.22;1.65;;;16.00;99.90;;;15.02;100.00;97606.06;5003040;28;20053;-77
2023/07/31 01:16:50;;;;;;;8.55;1.88;;;15.90;99.90;;;14.96;100.00;97607.31;5007581;28;20492;-77
2023/07/31 01:19:23;;;;;;;9.88;1.73;;;15.80;99.90;;;14.98;100.00;97605.41;5002313;28;20046;-77
2023/07/31 01:22:29;;;;;;;6.75;1.70;;;15.90;99.90;;;14.91;100.00;97608.50;4996486;28;20041;-77
2023/07/31 01:25:30;;;;;;;6.07;1.58;;;15.80;99.90;;;14.83;100.00;97603.72;4998601;28;20049;-77
2023/07/31 01:28:06;;;;;;;10.52;2.33;;;15.80;99.90;;;14.82;100.00;97605.50;5002819;28;20054;-76
2023/07/31 01:30:38;;;;;;;6.10;1.67;;;15.70;99.90;;;14.80;100.00;97604.75;5004877;28;20157;-75
2023/07/31 01:33:07;;;;;;;5.60;1.20;;;15.70;99.90;;;14.86;100.00;97593.09;4999228;28;20590;-77
2023/07/31 01:35:36;;;;;;;4.45;1.38;;;15.70;99.90;;;14.83;100.00;97583.66;5002972;28;20053;-76
2023/07/31 01:38:05;;;;;;;8.25;1.42;;;15.60;99.90;;;14.82;100.00;97589.84;5004495;28;20082;-76
2023/07/31 01:40:32;;;;;;;12.07;1.88;;;15.70;99.90;;;14.81;100.00;97593.34;5004692;28;20049;-77
2023/07/31 01:42:59;;;;;;;5.25;1.67;;;15.60;99.90;;;14.84;100.00;97593.16;5005824;28;20046;-76
2023/07/31 01:45:27;;;;;;;7.30;1.77;;;15.60;99.90;;;14.89;100.00;97590.28;5004926;28;20061;-76
2023/07/31 01:47:54;;;;;;;10.73;2.10;;;15.70;99.90;;;14.88;100.00;97593.84;5002084;28;20054;-76
2023/07/31 01:50:21;;;;;;;6.75;1.48;;;15.70;99.90;;;14.85;100.00;97586.19;5001507;28;20053;-76
2023/07/31 01:52:48;;;;;;;7.93;1.98;;;15.70;99.90;;;14.90;100.00;97584.13;5005614;28;20057;-76
2023/07/31 01:55:15;;;;;;;7.38;1.73;;;15.70;99.90;;;14.86;100.00;97582.63;5006082;28;20574;-76
2023/07/31 01:57:42;;;;;;;5.78;1.60;;;15.70;99.90;;;14.72;100.00;97580.00;5002891;28;20046;-76
2023/07/31 02:00:11;;;;;;;7.93;1.70;;;15.70;99.90;;;14.81;100.00;97579.47;5003349;28;20156;-76
2023/07/31 02:02:38;;;;;;;6.88;1.77;;;15.70;99.90;;;14.85;100.00;97583.59;5004403;28;20504;-76
2023/07/31 02:05:05;;;;;;;7.07;1.50;;;15.70;99.90;;;14.80;100.00;97577.75;5005547;28;20108;-76
2023/07/31 02:07:33;;;;;;;8.20;2.13;;;15.60;99.90;;;14.78;100.00;97574.41;5005847;28;20062;-76
2023/07/31 02:10:00;;;;;;;6.32;1.65;;;15.60;99.90;;;14.73;100.00;97571.22;5002938;28;20085;-76
2023/07/31 02:12:30;;;;;;;9.73;1.42;;;15.60;99.90;;;14.66;100.00;97575.97;5000033;28;20050;-77
2023/07/31 02:14:57;;;;;;;7.10;1.63;;;15.60;99.90;;;14.65;100.00;97569.09;5002882;28;20061;-75
2023/07/31 02:17:24;;;;;;;6.53;1.80;;;15.60;99.90;;;14.60;100.00;97564.13;5004556;28;20054;-77
2023/07/31 02:19:51;;;;;;;7.05;1.63;;;15.50;99.90;;;14.52;100.00;97565.47;5006749;28;20053;-76
2023/07/31 02:22:19;;;;;;;13.02;1.98;;;15.50;99.90;;;14.47;100.00;97570.13;5004830;28;20093;-76
2023/07/31 02:24:46;;;;;;;7.82;1.60;;;15.40;99.90;;;14.48;100.00;97567.41;5005558;28;20113;-76
2023/07/31 02:27:13;;;;;;;8.18;2.10;;;15.40;99.90;;;14.41;100.00;97568.69;5005272;28;20104;-76
2023/07/31 02:29:40;;;;;;;5.00;1.80;;;15.30;99.90;;;14.35;100.00;97566.47;5008056;28;20132;-77
2023/07/31 02:32:07;;;;;;;6.50;1.80;;;15.20;99.90;;;14.33;100.00;97565.72;5004636;28;20140;-77
2023/07/31 02:34:34;;;;;;;9.32;1.77;;;15.20;99.90;;;14.32;100.00;97567.50;5006151;28;20046;-77
2023/07/31 02:37:01;;;;;;;8.55;1.60;;;15.20;99.90;;;14.28;100.00;97563.38;5004305;28;20045;-77
2023/07/31 02:39:28;;;;;;;7.75;1.92;;;15.10;99.90;;;14.28;100.00;97571.19;5004499;28;20047;-77
2023/07/31 02:41:55;;;;;;;9.15;1.73;;;15.20;99.90;;;14.28;100.00;97570.34;5004068;28;20050;-75
2023/07/31 02:44:22;;;;;;;11.77;2.35;;;15.10;99.90;;;14.29;100.00;97569.44;5004295;28;20100;-76
2023/07/31 02:46:49;;;;;;;8.25;2.20;;;15.10;99.90;;;14.25;100.00;97568.75;5005272;28;20058;-77
2023/07/31 02:49:16;;;;;;;6.47;1.75;;;15.10;99.90;;;14.26;100.00;97570.44;5004414;28;20058;-76
2023/07/31 02:51:43;;;;;;;8.13;2.30;;;15.00;99.90;;;14.34;100.00;97559.53;5006249;28;20108;-77
2023/07/31 02:54:10;;;;;;;9.10;2.05;;;15.10;99.90;;;14.35;100.00;97571.69;5005280;28;20066;-76
2023/07/31 02:56:37;;;;;;;10.65;2.10;;;15.10;99.90;;;14.32;100.00;97564.88;5000852;28;20072;-76
2023/07/31 02:59:05;;;;;;;4.30;1.83;;;15.10;99.90;;;14.28;100.00;97562.50;5005321;28;20072;-76
2023/07/31 03:01:32;;;;;;;8.15;1.45;;;15.10;99.90;;;14.35;100.00;97562.06;5004373;28;20042;-76
2023/07/31 03:04:00;;;;;;;8.32;1.83;;;15.10;99.90;;;14.42;100.00;97565.19;5002923;28;20050;-76
2023/07/31 03:06:27;;;;;;;7.00;1.58;;;15.10;99.90;;;14.38;100.00;97563.66;5002992;28;20069;-76
2023/07/31 03:08:55;;;;;;;5.57;1.23;;;15.20;99.90;;;14.35;100.00;97562.06;5001634;28;20532;-76
2023/07/31 03:11:21;;;;;;;12.68;1.90;;;15.10;99.90;;;14.33;100.00;97556.09;5005071;28;20054;-76
2023/07/31 03:13:49;;;;;;;9.52;2.03;;;15.20;99.90;;;14.39;100.00;97560.97;5000264;28;20081;-76
2023/07/31 03:16:16;;;;;;;9.77;1.90;;;15.20;99.90;;;14.40;100.00;97565.25;4999611;28;20050;-75
2023/07/31 03:18:43;;;;;;;7.20;2.00;;;15.10;99.90;;;14.35;100.00;97563.84;5003129;28;20054;-76
2023/07/31 03:21:10;;;;;;;8.07;1.90;;;15.20;99.90;;;14.38;100.00;97571.50;5000015;28;20096;-76
2023/07/31 03:23:37;;;;;;;8.85;1.95;;;15.10;99.90;;;14.33;100.00;97573.53;5001425;28;20046;-74
2023/07/31 03:26:07;;;;;;;16.92;1.95;;;15.10;99.90;;;14.41;100.00;97584.38;4999975;28;20417;-76
2023/07/31 03:28:35;;;;;;;8.07;1.50;;;15.10;99.90;;;14.27;100.00;97579.94;4994768;28;20137;-76
2023/07/31 03:31:02;;;;;;;7.05;1.90;;;15.10;99.90;;;14.25;100.00;97576.59;5001187;28;20643;-76
2023/07/31 03:33:29;;;;;;;7.75;1.45;;;15.10;99.90;;;14.25;100.00;97583.56;5005691;28;20540;-77
2023/07/31 03:35:57;;;;;;;8.30;2.17;;;15.10;99.90;;;14.19;100.00;97575.19;5002199;28;20506;-76
2023/07/31 03:38:24;;;;;;;8.57;2.22;;;15.10;99.90;;;14.27;100.00;97576.50;5004060;28;20042;-76
2023/07/31 03:40:51;;;;;;;10.00;2.05;;;15.10;99.90;;;14.23;100.00;97574.06;5001540;28;20049;-76
2023/07/31 03:43:21;;;;;;;6.10;1.70;;;15.10;99.90;;;14.26;100.00;97575.66;5006608;28;20049;-75
2023/07/31 03:45:48;;;;;;;9.85;2.03;;;15.00;99.90;;;14.21;100.00;97572.50;5006649;28;20105;-76
2023/07/31 03:48:16;;;;;;;7.82;1.75;;;15.00;99.90;;;14.22;100.00;97566.31;5008107;28;20057;-76
2023/07/31 03:50:43;;;;;;;10.18;2.47;;;15.00;99.90;;;14.24;100.00;97567.06;5007458;28;20140;-76
2023/07/31 03:53:10;;;;;;;7.18;2.00;;;15.00;99.90;;;14.22;100.00;97567.16;5006633;28;20045;-76
2023/07/31 03:55:37;;;;;;;6.68;2.03;;;15.00;99.90;;;14.22;100.00;97563.72;5001167;28;20046;-76
2023/07/31 03:58:04;;;;;;;6.97;1.98;;;15.00;99.90;;;14.25;100.00;97567.91;5002192;28;20061;-76
2023/07/31 04:00:31;;;;;;;7.95;1.95;;;15.00;99.90;;;14.20;100.00;97563.78;5005080;28;20054;-76
2023/07/31 04:02:58;;;;;;;8.93;2.05;;;15.00;99.90;;;14.20;100.00;97565.56;5007771;28;20136;-76
2023/07/31 04:05:25;;;;;;;8.90;1.90;;;15.00;99.90;;;14.15;100.00;97576.28;5003305;28;20507;-76
2023/07/31 04:07:52;;;;;;;9.65;1.70;;;15.00;99.90;;;14.16;100.00;97562.31;5006659;28;20049;-75
2023/07/31 04:10:20;;;;;;;7.95;2.05;;;14.90;99.90;;;14.15;100.00;97571.06;5006540;28;20050;-76
2023/07/31 04:12:47;;;;;;;6.90;1.50;;;14.90;99.90;;;14.13;100.00;97564.25;5007897;28;20108;-75
2023/07/31 04:15:14;;;;;;;7.80;1.63;;;15.00;99.90;;;14.23;100.00;97562.78;5006867;28;20054;-77
2023/07/31 04:17:41;;;;;;;6.78;1.63;;;14.90;99.90;;;14.09;100.00;97574.00;5007590;28;20092;-76
2023/07/31 04:20:09;;;;;;;9.18;1.95;;;14.90;99.90;;;14.01;100.00;97566.63;5007673;28;20054;-76
2023/07/31 04:22:36;;;;;;;9.05;2.10;;;14.90;99.90;;;13.96;100.00;97568.66;5005494;28;20181;-76
2023/07/31 04:25:04;;;;;;;9.98;1.80;;;14.80;99.90;;;13.90;100.00;97563.78;5005779;28;20120;-76
2023/07/31 04:27:31;;;;;;;6.72;1.75;;;14.80;99.90;;;13.98;100.00;97566.81;5004906;28;20315;-76
2023/07/31 04:29:58;;;;;;;9.82;2.25;;;14.70;99.90;;;13.94;100.00;97559.25;5004270;28;20480;-76
2023/07/31 04:32:25;;;;;;;6.43;1.95;;;14.80;99.90;;;13.96;100.00;97560.00;5005122;28;20112;-75
2023/07/31 04:34:52;;;;;;;6.95;1.90;;;14.80;99.90;;;14.00;100.00;97553.66;5004998;28;20059;-75
2023/07/31 04:37:19;;;;;;;6.50;1.63;;;14.80;99.90;;;13.96;100.00;97553.00;5004858;28;20054;-76
2023/07/31 04:39:46;;;;;;;10.65;1.77;;;14.80;99.90;;;13.97;100.00;97556.44;5008092;28;20417;-75
2023/07/31 04:42:13;;;;;;;5.25;1.60;;;14.80;99.90;;;13.94;100.00;97557.47;5005084;28;20050;-76
2023/07/31 04:44:40;;;;;;;5.95;1.80;;;14.80;99.90;;;13.94;100.00;97554.00;5006485;28;20428;-75
2023/07/31 04:47:07;;;;;;;6.88;2.10;;;14.80;99.90;;;13.88;100.00;97557.78;5006050;28;20050;-75
2023/07/31 04:49:35;;;;;;;10.27;2.20;;;14.80;99.90;;;13.90;100.00;97560.31;5007235;28;20489;-75
2023/07/31 04:52:02;;;;;;;7.75;2.42;;;14.70;99.90;;;13.91;100.00;97564.59;5004491;28;20501;-76
2023/07/31 04:54:29;;;;;;;10.82;1.80;;;14.70;99.90;;;13.89;100.00;97556.88;5003925;28;20045;-76
2023/07/31 04:56:56;;;;;;;6.20;1.52;;;14.70;99.90;;;13.90;100.00;97558.56;5006633;28;20054;-76
2023/07/31 04:59:23;;;;;;;11.55;2.40;;;14.70;99.90;;;13.96;100.00;97560.81;5002605;28;20045;-75
2023/07/31 05:01:50;;;;;;;9.52;2.20;;;14.80;99.90;;;13.97;100.00;97565.09;5005232;28;20077;-76
2023/07/31 05:04:17;;;;;;;6.47;1.85;;;14.70;99.90;;;14.06;100.00;97562.91;5005360;28;20149;-76
2023/07/31 05:06:44;;;;;;;6.55;1.70;;;14.70;99.90;;;13.95;100.00;97563.50;5002912;28;20069;-76
2023/07/31 05:09:12;;;;;;;6.55;1.63;;;14.80;99.90;;;14.15;100.00;97559.78;5003853;28;20162;-76
2023/07/31 05:11:40;;;;;;;8.13;2.53;;;14.80;99.90;;;14.16;100.00;97556.22;5001483;28;20100;-76
2023/07/31 05:14:07;;;;;;;9.73;2.05;;;14.80;99.90;;;14.24;100.00;97556.63;5004157;28;20112;-76
2023/07/31 05:16:34;;;;;;;5.30;1.42;;;14.90;99.90;;;14.29;100.00;97551.16;5005510;28;20153;-76
2023/07/31 05:19:01;;;;;;;8.57;1.90;;;14.90;99.90;;;14.33;100.00;97552.66;5002869;28;20651;-76
2023/07/31 05:21:29;;;;;;;7.05;1.90;;;15.00;99.90;;;14.50;100.00;97544.66;5004668;28;20116;-76
2023/07/31 05:23:56;;;;;;;5.82;1.83;;;15.10;99.90;;;14.58;100.00;97528.59;5001352;28;20050;-75
2023/07/31 05:26:23;;;;;;;10.73;1.98;;;15.20;99.90;;;14.56;100.00;97538.28;4999473;28;20042;-76
2023/07/31 05:28:50;;;;;;;6.07;1.42;;;15.20;99.90;;;14.73;100.00;97539.88;5002327;28;20061;-75
2023/07/31 05:31:17;;;;;;;10.00;1.95;;;15.30;99.90;;;14.71;100.00;97540.00;5004202;28;20061;-76
2023/07/31 05:33:44;;;;;;;6.68;1.85;;;15.30;99.90;;;14.76;100.00;97529.25;5005471;28;20112;-76
2023/07/31 05:36:11;;;;;;;9.13;2.08;;;15.40;99.90;;;14.94;100.00;97527.28;5005503;28;20561;-76
2023/07/31 05:38:38;;;;;;;6.43;1.75;;;15.50;99.90;;;14.98;100.00;97524.38;5003459;28;20197;-77
2023/07/31 05:41:09;;;;;;;8.90;2.40;;;15.60;99.90;;;14.98;100.00;97516.53;5001796;28;20460;-76
2023/07/31 05:43:36;;;;;;;5.78;2.00;;;15.70;99.90;;;15.01;100.00;97521.59;5002720;28;20038;-77
2023/07/31 05:46:03;;;;;;;14.73;2.28;;;15.70;99.90;;;15.14;100.00;97510.38;5002580;28;20054;-76
2023/07/31 05:48:34;;;;;;;9.50;2.17;;;15.80;99.90;;;15.25;100.00;97505.31;5001586;28;20500;-76
2023/07/31 05:51:01;;;;;;;6.15;1.73;;;15.90;99.90;;;15.25;100.00;97507.94;5002808;28;20045;-76
2023/07/31 05:53:28;;;;;;;10.90;2.28;;;15.90;99.90;;;15.08;100.00;97513.38;5003744;28;20065;-76
2023/07/31 05:55:55;;;;;;;8.02;2.13;;;15.90;99.90;;;15.22;100.00;97510.75;5002903;28;20084;-76
2023/07/31 05:58:22;;;;;;;7.63;2.40;;;15.90;99.90;;;15.11;100.00;97519.25;5004414;28;20065;-76
2023/07/31 06:00:49;;;;;;;6.97;1.92;;;15.90;99.90;;;15.17;100.00;97497.97;4999901;28;20068;-77
2023/07/31 06:03:19;;;;;;;8.13;2.00;;;15.90;99.90;;;15.27;100.00;97506.06;5003469;28;20124;-76
2023/07/31 06:05:46;;;;;;;5.15;1.98;;;16.00;99.90;;;15.33;100.00;97502.25;5002566;28;20473;-77
2023/07/31 06:08:13;;;;;;;8.68;1.92;;;16.00;99.90;;;15.14;100.00;97499.91;5003376;28;20115;-76
2023/07/31 06:10:40;;;;;;;9.68;2.85;;;16.00;99.90;;;15.13;100.00;97501.69;5004190;28;20053;-76
2023/07/31 06:13:07;;;;;;;9.80;2.47;;;15.80;99.90;;;15.22;100.00;97501.13;5002902;28;20440;-75
2023/07/31 06:15:34;;;;;;;8.38;2.10;;;15.90;99.90;;;15.20;100.00;97508.22;4998747;28;20508;-76
2023/07/31 06:18:07;;;;;;;7.75;2.08;;;15.80;99.90;;;15.18;100.00;97520.53;5002853;28;20055;-77
2023/07/31 06:20:35;;;;;;;8.00;2.42;;;15.80;99.90;;;15.17;100.00;97508.41;5003074;28;20050;-77
2023/07/31 06:23:02;;;;;;;6.65;2.25;;;15.80;99.90;;;15.13;100.00;97511.31;5004716;28;20448;-77
2023/07/31 06:25:30;;;;;;;8.02;2.58;;;15.90;99.90;;;15.16;100.00;97516.34;5001469;28;20049;-75
2023/07/31 06:27:57;;;;;;;9.40;2.33;;;15.80;99.90;;;15.16;100.00;97522.41;5003553;28;20081;-76
2023/07/31 06:30:24;;;;;;;8.38;1.85;;;15.70;99.90;;;15.14;100.00;97515.59;4999873;28;20489;-76
2023/07/31 06:32:51;;;;;;;11.48;2.17;;;15.70;99.90;;;15.33;100.00;97521.38;5004037;28;20061;-77
2023/07/31 06:35:19;;;;;;;10.07;2.28;;;15.80;99.90;;;15.35;100.00;97516.91;5002943;28;20094;-76
2023/07/31 06:37:46;;;;;;;6.78;2.00;;;15.90;99.90;;;15.79;100.00;97512.41;4996754;28;20049;-76
2023/07/31 06:40:13;;;;;;;9.98;2.20;;;16.10;99.90;;;15.80;100.00;97493.97;5003890;28;20053;-76
2023/07/31 06:42:40;;;;;;;8.68;2.00;;;16.30;99.90;;;16.04;100.00;97491.53;5004984;28;20100;-77
2023/07/31 06:45:08;;;;;;;6.47;2.00;;;16.40;99.90;;;16.27;100.00;97494.41;5004325;28;20465;-77
2023/07/31 06:47:35;;;;;;;9.05;2.22;;;16.60;99.90;;;16.60;100.00;97485.19;5006699;28;20048;-77
2023/07/31 06:50:02;;;;;;;7.38;1.80;;;16.70;99.90;;;16.58;100.00;97481.84;5004750;28;20085;-76
2023/07/31 06:52:30;;;;;;;14.98;3.05;;;16.90;99.90;;;16.55;100.00;97475.03;5003768;28;20054;-77
2023/07/31 06:55:18;;;;;;;5.18;1.95;;;16.90;99.90;;;16.85;100.00;97472.09;5000836;28;20147;-76
2023/07/31 06:57:50;;;;;;;8.27;2.28;;;17.10;99.90;;;16.97;100.00;97465.19;4999713;28;20053;-78
2023/07/31 07:00:19;;;;;;;8.52;2.25;;;17.30;99.90;;;16.99;100.00;97460.66;5005119;28;20049;-77
2023/07/31 07:02:50;;;;;;;6.50;2.38;;;17.30;99.90;;;17.59;100.00;97472.13;4991570;28;20041;-77
2023/07/31 07:05:17;;;;;;;12.65;2.80;;;17.60;99.90;;;17.58;100.00;97449.44;5004122;28;20050;-75
2023/07/31 07:07:45;;;;;;;11.25;2.85;;;17.90;99.90;;;17.51;100.00;97453.47;5001125;28;20424;-77
2023/07/31 07:10:12;;;;;;;12.15;2.55;;;17.80;99.90;;;17.54;100.00;97440.13;5002902;28;20421;-78
2023/07/31 07:12:39;;;;;;;7.22;2.05;;;17.70;99.90;;;17.94;100.00;97443.28;5007521;28;20112;-76
2023/07/31 07:15:09;;;;;;;6.85;2.03;;;17.80;99.90;;;17.67;100.00;97430.38;5000234;28;20579;-75
2023/07/31 07:17:37;;;;;;;8.32;2.40;;;17.80;99.90;;;17.57;100.00;97426.78;5004429;28;20089;-75
2023/07/31 07:20:05;;;;;;;7.15;2.28;;;17.90;99.90;;;17.73;100.00;97439.59;4999703;28;20057;-75
2023/07/31 07:22:32;;;;;;;7.50;2.10;;;18.00;99.90;;;17.91;100.00;97425.16;5001759;28;20054;-75
2023/07/31 07:25:04;;;;;;;6.97;2.10;;;18.10;99.90;;;17.74;100.00;97444.75;5002627;28;20668;-76
2023/07/31 07:27:31;;;;;;;16.33;2.83;;;18.20;99.90;;;17.84;100.00;97437.06;5008495;28;20049;-77
2023/07/31 07:29:58;;;;;;;18.98;2.88;;;18.00;99.90;;;17.72;100.00;97437.91;5004201;28;20108;-76
2023/07/31 07:32:25;;;;;;;6.43;1.90;;;17.90;99.90;;;17.68;100.00;97439.13;5001881;28;20050;-76
2023/07/31 07:34:52;;;;;;;9.65;2.65;;;18.00;99.90;;;17.32;100.00;97439.06;5000974;28;20492;-77
2023/07/31 07:37:20;;;;;;;6.43;2.25;;;17.90;99.90;;;17.17;100.00;97452.44;5001828;28;20459;-77
2023/07/31 07:39:47;;;;;;;7.80;2.20;;;17.70;99.90;;;17.29;100.00;97444.53;5002750;28;20086;-77
2023/07/31 07:42:14;;;;;;;7.70;2.25;;;17.90;99.90;;;17.46;100.00;97437.22;5003446;28;20511;-77
2023/07/31 07:44:41;;;;;;;9.00;2.33;;;17.80;99.90;;;17.58;100.00;97438.94;5000628;28;20053;-77
2023/07/31 07:47:08;;;;;;;7.32;2.20;;;17.90;99.90;;;17.57;100.00;97437.28;5007535;28;20045;-76
2023/07/31 07:49:35;;;;;;;6.68;2.10;;;17.80;99.90;;;17.96;100.00;97423.00;5004202;28;20056;-76
2023/07/31 07:52:03;;;;;;;6.10;1.95;;;18.10;99.90;;;18.31;100.00;97429.16;5001757;28;20049;-76
2023/07/31 07:54:31;;;;;;;7.22;1.90;;;18.40;99.90;;;18.23;100.00;97428.94;5004808;28;20159;-75
2023/07/31 07:56:59;;;;;;;8.93;2.35;;;18.30;99.90;;;18.00;100.00;97431.50;5003953;28;20077;-75
2023/07/31 07:59:26;;;;;;;7.07;2.17;;;18.30;99.90;;;18.14;100.00;97431.28;5007586;28;20057;-76
2023/07/31 08:01:53;;;;;;;8.20;2.25;;;18.40;99.90;;;18.28;100.00;97419.72;5004647;28;20552;-76
2023/07/31 08:04:20;;;;;;;7.93;2.00;;;18.30;99.90;;;18.64;100.00;97423.13;5000200;28;20477;-76
2023/07/31 08:06:47;;;;;;;9.73;2.53;;;18.60;99.90;;;18.33;100.00;97420.22;4999264;28;20288;-77
2023/07/31 08:09:14;;;;;;;7.38;2.17;;;18.70;99.90;;;18.15;100.00;97417.22;5004835;28;20401;-79
2023/07/31 08:11:41;;;;;;;9.27;2.67;;;18.60;99.90;;;18.06;100.00;97389.00;5009579;28;20061;-76
2023/07/31 08:14:08;;;;;;;8.82;2.55;;;18.50;99.90;;;18.18;100.00;97406.47;5010566;28;20504;-78
2023/07/31 08:16:35;;;;;;;9.63;2.95;;;18.40;99.90;;;18.20;100.00;97406.38;5008735;28;21195;-76
2023/07/31 08:19:02;;;;;;;8.60;2.20;;;18.40;99.90;;;18.51;100.00;97385.59;5006111;28;20060;-77
2023/07/31 08:21:30;;;;;;;7.45;2.30;;;18.50;99.90;;;18.32;100.00;97388.81;5004981;28;20564;-76
2023/07/31 08:23:57;;;;;;;9.00;2.00;;;18.60;99.90;;;18.68;100.00;97386.88;5004013;28;20107;-76
2023/07/31 08:26:24;;;;;;;8.50;2.95;;;18.90;99.90;;;19.26;100.00;97391.97;5007314;28;20054;-77
2023/07/31 08:28:51;;;;;;;9.45;2.67;;;19.50;99.90;;;18.97;100.00;97405.66;5007929;28;20050;-77
2023/07/31 08:31:18;;;;;;;8.52;2.55;;;19.40;99.90;;;18.86;100.00;97390.75;5015615;28;20054;-77
2023/07/31 08:33:46;;;;;;;8.38;2.08;;;19.20;99.90;;;19.06;100.00;97389.16;5012875;28;20445;-77
2023/07/31 08:36:13;;;;;;;6.60;2.25;;;19.10;99.90;;;18.87;100.00;97392.41;5014350;28;20505;-77
2023/07/31 08:38:40;;;;;;;8.57;2.25;;;19.10;99.90;;;18.83;100.00;97388.34;5013254;28;20107;-77
2023/07/31 08:41:07;;;;;;;7.05;2.47;;;19.10;99.90;;;18.79;100.00;97384.28;5013421;28;20097;-77
2023/07/31 08:43:37;;;;;;;7.28;2.40;;;18.90;99.90;;;18.84;100.00;97374.25;5011691;28;20046;-77
2023/07/31 08:46:05;;;;;;;7.15;2.20;;;19.10;99.90;;;18.79;100.00;97358.84;5010244;28;20053;-77
2023/07/31 08:48:33;;;;;;;7.55;2.55;;;19.30;99.90;;;18.94;100.00;97346.25;5008250;28;20116;-77
2023/07/31 08:51:00;;;;;;;13.73;2.65;;;19.30;99.90;;;19.27;100.00;97355.00;5013002;28;20084;-76
2023/07/31 08:53:27;;;;;;;7.32;2.15;;;19.60;99.90;;;19.92;100.00;97361.06;5012899;28;20053;-78
2023/07/31 08:55:56;;;;;;;6.65;2.22;;;20.00;99.90;;;20.16;100.00;97358.19;5012177;28;20097;-77
2023/07/31 08:58:25;;;;;;;9.27;2.35;;;20.20;99.90;;;19.99;100.00;97343.78;5015805;28;20084;-77
2023/07/31 09:00:54;;;;;;;5.57;1.95;;;20.50;99.90;;;20.08;100.00;97343.97;5010532;28;20045;-78
2023/07/31 09:03:25;;;;;;;9.20;2.03;;;20.30;99.90;;;19.83;100.00;97359.22;5012276;28;20086;-79
2023/07/31 09:05:55;;;;;;;8.10;2.13;;;20.20;99.90;;;19.66;100.00;97350.06;4994793;28;20185;-78
2023/07/31 09:08:23;;;;;;;10.52;2.05;;;20.10;99.90;;;19.55;100.00;97366.75;5013842;28;20104;-78
2023/07/31 09:10:50;;;;;;;5.95;2.60;;;19.90;99.90;;;20.02;100.00;97364.59;5006642;28;20054;-78
2023/07/31 09:13:17;;;;;;;8.60;2.60;;;20.20;99.90;;;20.44;100.00;97350.53;5016542;28;20112;-77
2023/07/31 09:15:46;;;;;;;8.23;2.28;;;20.30;99.90;;;21.09;100.00;97365.03;5015753;28;20058;-77
2023/07/31 09:18:17;;;;;;;7.97;2.28;;;20.90;99.90;;;20.36;100.00;97356.44;5009924;28;20057;-79
2023/07/31 09:20:44;;;;;;;5.72;1.98;;;20.90;99.90;;;20.59;100.00;97351.03;5011633;28;20499;-76
2023/07/31 09:23:14;;;;;;;10.50;2.55;;;21.10;99.90;;;20.73;100.00;97361.19;5012700;28;20135;-78
2023/07/31 09:25:44;;;;;;;7.35;2.03;;;21.00;99.90;;;20.69;100.00;97341.34;5011506;28;20430;-77
2023/07/31 09:28:12;;;;;;;10.82;3.00;;;21.20;99.90;;;20.36;100.00;97358.25;5013450;28;20058;-78
2023/07/31 09:30:51;;;;;;;7.75;2.30;;;21.00;99.90;;;20.34;100.00;97339.94;5015775;28;20100;-78
2023/07/31 09:33:19;;;;;;;10.63;2.45;;;21.10;99.90;;;20.29;100.00;97359.75;5013001;28;20046;-77
2023/07/31 09:35:48;;;;;;;7.85;2.42;;;21.30;99.90;;;20.19;100.00;97339.47;5011276;28;20121;-77
2023/07/31 09:38:16;;;;;;;11.48;2.78;;;21.20;99.90;;;19.80;100.00;97355.03;5014453;28;20061;-79
2023/07/31 09:40:48;;;;;;;9.00;2.65;;;20.70;99.90;;;19.70;100.00;97350.66;5008718;28;20049;-78
2023/07/31 09:43:21;;;;;;;11.32;2.90;;;20.30;99.90;;;19.43;100.00;97351.94;5013836;28;20401;-79
2023/07/31 09:45:55;;;;;;;11.43;3.63;;;19.80;99.90;;;19.41;100.00;97362.63;5012852;28;20058;-78
2023/07/31 09:48:27;;;;;;;7.18;2.75;;;19.80;99.90;;;19.57;100.00;97351.66;5013386;28;20052;-78
2023/07/31 09:50:55;;;;;;;8.63;2.63;;;20.00;99.90;;;19.53;100.00;97339.72;4993557;28;20089;-77
2023/07/31 09:53:32;;;;;;;8.55;2.60;;;20.00;99.90;;;19.50;100.00;97354.91;5013240;28;20413;-79
2023/07/31 09:55:59;;;;;;;7.05;3.03;;;19.80;99.90;;;19.57;100.00;97348.19;5012794;28;20053;-78
2023/07/31 09:58:29;;;;;;;7.40;2.40;;;19.80;99.90;;;19.55;100.00;97327.25;5010073;28;20072;-77
2023/07/31 10:00:59;;;;;;;6.68;2.78;;;19.70;99.90;;;19.44;100.00;97348.38;5002147;28;20301;-77
2023/07/31 10:03:36;;;;;;;8.68;2.90;;;19.80;99.90;;;19.43;100.00;97344.03;5006005;28;20037;-76
2023/07/31 10:06:05;;;;;;;8.60;3.17;;;19.80;99.90;;;19.49;100.00;97316.41;5007162;28;20081;-77
2023/07/31 10:08:36;;;;;;;12.57;2.42;;;19.90;99.90;;;19.29;100.00;97328.56;5009170;28;20400;-78
2023/07/31 10:11:04;;;;;;;8.88;2.78;;;19.70;99.90;;;19.26;100.00;97329.66;5014529;28;20437;-78
2023/07/31 10:13:32;;;;;;;10.05;3.05;;;19.60;99.90;;;19.09;100.00;97315.25;5013093;28;20405;-78
2023/07/31 10:16:03;;;;;;;11.68;3.15;;;19.60;99.90;;;18.96;100.00;97328.56;5007934;28;20115;-80
2023/07/31 10:18:35;;;;;;;8.95;3.50;;;19.50;99.90;;;19.14;100.00;97312.25;5014408;28;20049;-76